ITS Palinuro — IGMX — position and weather

sailwx.info

Track history (hours):
 
Tides and Currents Weather Stations Pressure Air Temp Water Temp Dewpoint Dewpoint Depression Visibility Wind Speed Wind Dir Waves Ship Positions

ITS Palinuro

Last reported at 2017-Oct-20 07:08 UTC. Time now 2017-Nov-24 00:25 UTC.
Position N 44°05' E 009°49'.
Warning: this ship's position is 34 days out of date.

; draft 4.8 m.

MMSI: 247939000.

Date/timePositionNaut miles runAvg speedWind from/ knotsBaromVisibWave heightAir tempDewpointWater temp
2017-Oct-20 07:08N 44°05' E 009°49'0 2.0
2017-Oct-20 07:00N 44°05' E 009°50'2 3.8
2017-Oct-20 06:30N 44°04' E 009°51'2 4.8
2017-Oct-20 06:00N 44°02' E 009°54'2 4.3
2017-Oct-20 05:30N 44°01' E 009°56'2 4.1
2017-Oct-20 05:00N 43°59' E 009°55'2 4.0
2017-Oct-20 04:30N 43°57' E 009°53'2 4.1
2017-Oct-20 04:00N 43°55' E 009°52'2 3.4
2017-Oct-20 03:30N 43°54' E 009°51'3 4.6
2017-Oct-20 02:57N 43°55' E 009°48'2 4.4
2017-Oct-20 02:26N 43°57' E 009°46'2 4.4
2017-Oct-20 02:00N 43°58' E 009°44'2 4.6
2017-Oct-20 01:30N 44°00' E 009°42'2 4.4
2017-Oct-20 01:00N 44°02' E 009°40'2 4.3
2017-Oct-20 00:30N 44°03' E 009°38'2 4.4
2017-Oct-20 00:00N 44°05' E 009°36'1 1.3
2017-Oct-19 23:30N 44°05' E 009°35'2 4.8
2017-Oct-19 23:00N 44°04' E 009°38'2 4.9
2017-Oct-19 22:30N 44°02' E 009°40'2 4.9
2017-Oct-19 22:00N 44°01' E 009°43'0 1.0
2017-Oct-19 21:30N 44°01' E 009°44'2 4.7
2017-Oct-19 21:00N 44°03' E 009°42'3 4.7
2017-Oct-19 20:28N 44°05' E 009°39'2 4.8
2017-Oct-19 19:58N 44°06' E 009°37'1 2.2
2017-Oct-19 19:30N 44°06' E 009°38'3 5.0
2017-Oct-19 18:58N 44°04' E 009°40'2 5.1
2017-Oct-19 18:30N 44°02' E 009°43'3 5.2
2017-Oct-19 18:00N 44°00' E 009°45'1 1.9
2017-Oct-19 17:30N 44°01' E 009°45'2 4.5
2017-Oct-19 17:00N 44°03' E 009°43'2 4.7
2017-Oct-19 16:30N 44°04' E 009°40'2 4.6
2017-Oct-19 16:00N 44°06' E 009°38'2 4.5
2017-Oct-19 15:30N 44°07' E 009°35'2 4.2
2017-Oct-19 15:00N 44°09' E 009°33'2 4.2
2017-Oct-19 14:30N 44°10' E 009°31'2 4.0
2017-Oct-19 13:59N 44°08' E 009°32'3 5.3
2017-Oct-19 13:30N 44°06' E 009°35'3 5.1
2017-Oct-19 13:00N 44°05' E 009°38'3 5.2
2017-Oct-19 12:29N 44°03' E 009°40'2 4.6
2017-Oct-19 12:00N 44°02' E 009°43'2 4.2
2017-Oct-19 11:30N 44°03' E 009°41'2 4.1
2017-Oct-19 11:00N 44°05' E 009°39'2 4.0
2017-Oct-19 10:30N 44°06' E 009°37'2 3.8
2017-Oct-19 10:00N 44°07' E 009°35'2 3.9
2017-Oct-19 09:30N 44°08' E 009°32'2 4.4
2017-Oct-19 09:00N 44°09' E 009°30'2 4.5
2017-Oct-19 08:30N 44°11' E 009°27'2 4.4
2017-Oct-19 08:00N 44°12' E 009°25'2 4.5
2017-Oct-19 07:30N 44°14' E 009°23'6 2.7
2017-Oct-19 05:12N 44°17' E 009°15'1 4.6
2017-Oct-19 05:00N 44°16' E 009°16'2 4.5
2017-Oct-19 04:30N 44°15' E 009°19'2 4.5
2017-Oct-19 04:00N 44°13' E 009°21'2 5.0
2017-Oct-19 03:30N 44°12' E 009°24'3 5.1
2017-Oct-19 02:58N 44°10' E 009°27'2 5.0
2017-Oct-19 02:30N 44°09' E 009°29'3 5.1
2017-Oct-19 02:00N 44°07' E 009°32'3 5.2
2017-Oct-19 01:30N 44°05' E 009°35'3 5.3
2017-Oct-19 01:00N 44°04' E 009°38'3 5.2
2017-Oct-19 00:30N 44°02' E 009°40'3 5.4
2017-Oct-19 00:00N 44°00' E 009°43'3 5.3
2017-Oct-18 23:30N 43°59' E 009°46'2 4.8
2017-Oct-18 23:00N 43°57' E 009°49'2 4.4
2017-Oct-18 22:30N 43°56' E 009°51'2 4.5
2017-Oct-18 22:00N 43°55' E 009°54'2 4.7
2017-Oct-18 21:30N 43°53' E 009°56'2 4.6
2017-Oct-18 21:00N 43°52' E 009°59'2 4.6
2017-Oct-18 20:30N 43°50' E 010°01'3 4.9
2017-Oct-18 20:00N 43°48' E 010°03'2 4.7
2017-Oct-18 19:30N 43°46' E 010°05'2 5.0
2017-Oct-18 19:00N 43°44' E 010°07'2 4.8
2017-Oct-18 18:30N 43°42' E 010°09'2 4.9
2017-Oct-18 18:00N 43°40' E 010°11'2 4.3
2017-Oct-18 17:30N 43°38' E 010°10'2 5.0
2017-Oct-18 17:00N 43°36' E 010°07'2 4.9
2017-Oct-18 16:30N 43°34' E 010°05'2 4.1
2017-Oct-18 15:56N 43°32' E 010°06'2 4.9
2017-Oct-18 15:30N 43°30' E 010°06'14 4.5
2017-Oct-18 12:23N 43°24' E 010°24'3 5.1
2017-Oct-18 11:53N 43°22' E 010°25'2 5.1
2017-Oct-18 11:30N 43°21' E 010°22'2 5.0
2017-Oct-18 11:00N 43°21' E 010°19'229 4.8
2017-Oct-16 11:44N 40°43' E 014°02'2 4.5
2017-Oct-16 11:21N 40°44' E 014°04'2 4.5
2017-Oct-16 11:00N 40°45' E 014°05'2 4.5
2017-Oct-16 10:30N 40°46' E 014°08'3 4.7
2017-Oct-16 09:58N 40°47' E 014°11'  
Track history (hours):
 
Tides and Currents Weather Stations Pressure Air Temp Water Temp Dewpoint Dewpoint Depression Visibility Wind Speed Wind Dir Waves Ship Positions

ITS Palinuro

Last reported at 2017-Oct-20 07:08 UTC. Time now 2017-Nov-24 00:25 UTC.
Position N 44°05' E 009°49'.
Warning: this ship's position is 34 days out of date.

; draft 4.8 m.

MMSI: 247939000.

Date/timePositionNaut miles runAvg speedWind from/ knotsBaromVisibWave heightAir tempDewpointWater temp
2017-Oct-20 07:08N 44°05' E 009°49'0 2.0
2017-Oct-20 07:00N 44°05' E 009°50'2 3.8
2017-Oct-20 06:30N 44°04' E 009°51'2 4.8
2017-Oct-20 06:00N 44°02' E 009°54'2 4.3
2017-Oct-20 05:30N 44°01' E 009°56'2 4.1
2017-Oct-20 05:00N 43°59' E 009°55'2 4.0
2017-Oct-20 04:30N 43°57' E 009°53'2 4.1
2017-Oct-20 04:00N 43°55' E 009°52'2 3.4
2017-Oct-20 03:30N 43°54' E 009°51'3 4.6
2017-Oct-20 02:57N 43°55' E 009°48'2 4.4
2017-Oct-20 02:26N 43°57' E 009°46'2 4.4
2017-Oct-20 02:00N 43°58' E 009°44'2 4.6
2017-Oct-20 01:30N 44°00' E 009°42'2 4.4
2017-Oct-20 01:00N 44°02' E 009°40'2 4.3
2017-Oct-20 00:30N 44°03' E 009°38'2 4.4
2017-Oct-20 00:00N 44°05' E 009°36'1 1.3
2017-Oct-19 23:30N 44°05' E 009°35'2 4.8
2017-Oct-19 23:00N 44°04' E 009°38'2 4.9
2017-Oct-19 22:30N 44°02' E 009°40'2 4.9
2017-Oct-19 22:00N 44°01' E 009°43'0 1.0
2017-Oct-19 21:30N 44°01' E 009°44'2 4.7
2017-Oct-19 21:00N 44°03' E 009°42'3 4.7
2017-Oct-19 20:28N 44°05' E 009°39'2 4.8
2017-Oct-19 19:58N 44°06' E 009°37'1 2.2
2017-Oct-19 19:30N 44°06' E 009°38'3 5.0
2017-Oct-19 18:58N 44°04' E 009°40'2 5.1
2017-Oct-19 18:30N 44°02' E 009°43'3 5.2
2017-Oct-19 18:00N 44°00' E 009°45'1 1.9
2017-Oct-19 17:30N 44°01' E 009°45'2 4.5
2017-Oct-19 17:00N 44°03' E 009°43'2 4.7
2017-Oct-19 16:30N 44°04' E 009°40'2 4.6
2017-Oct-19 16:00N 44°06' E 009°38'2 4.5
2017-Oct-19 15:30N 44°07' E 009°35'2 4.2
2017-Oct-19 15:00N 44°09' E 009°33'2 4.2
2017-Oct-19 14:30N 44°10' E 009°31'2 4.0
2017-Oct-19 13:59N 44°08' E 009°32'3 5.3
2017-Oct-19 13:30N 44°06' E 009°35'3 5.1
2017-Oct-19 13:00N 44°05' E 009°38'3 5.2
2017-Oct-19 12:29N 44°03' E 009°40'2 4.6
2017-Oct-19 12:00N 44°02' E 009°43'2 4.2
2017-Oct-19 11:30N 44°03' E 009°41'2 4.1
2017-Oct-19 11:00N 44°05' E 009°39'2 4.0
2017-Oct-19 10:30N 44°06' E 009°37'2 3.8
2017-Oct-19 10:00N 44°07' E 009°35'2 3.9
2017-Oct-19 09:30N 44°08' E 009°32'2 4.4
2017-Oct-19 09:00N 44°09' E 009°30'2 4.5
2017-Oct-19 08:30N 44°11' E 009°27'2 4.4
2017-Oct-19 08:00N 44°12' E 009°25'2 4.5
2017-Oct-19 07:30N 44°14' E 009°23'6 2.7
2017-Oct-19 05:12N 44°17' E 009°15'1 4.6
2017-Oct-19 05:00N 44°16' E 009°16'2 4.5
2017-Oct-19 04:30N 44°15' E 009°19'2 4.5
2017-Oct-19 04:00N 44°13' E 009°21'2 5.0
2017-Oct-19 03:30N 44°12' E 009°24'3 5.1
2017-Oct-19 02:58N 44°10' E 009°27'2 5.0
2017-Oct-19 02:30N 44°09' E 009°29'3 5.1
2017-Oct-19 02:00N 44°07' E 009°32'3 5.2
2017-Oct-19 01:30N 44°05' E 009°35'3 5.3
2017-Oct-19 01:00N 44°04' E 009°38'3 5.2
2017-Oct-19 00:30N 44°02' E 009°40'3 5.4
2017-Oct-19 00:00N 44°00' E 009°43'3 5.3
2017-Oct-18 23:30N 43°59' E 009°46'2 4.8
2017-Oct-18 23:00N 43°57' E 009°49'2 4.4
2017-Oct-18 22:30N 43°56' E 009°51'2 4.5
2017-Oct-18 22:00N 43°55' E 009°54'2 4.7
2017-Oct-18 21:30N 43°53' E 009°56'2 4.6
2017-Oct-18 21:00N 43°52' E 009°59'2 4.6
2017-Oct-18 20:30N 43°50' E 010°01'3 4.9
2017-Oct-18 20:00N 43°48' E 010°03'2 4.7
2017-Oct-18 19:30N 43°46' E 010°05'2 5.0
2017-Oct-18 19:00N 43°44' E 010°07'2 4.8
2017-Oct-18 18:30N 43°42' E 010°09'2 4.9
2017-Oct-18 18:00N 43°40' E 010°11'2 4.3
2017-Oct-18 17:30N 43°38' E 010°10'2 5.0
2017-Oct-18 17:00N 43°36' E 010°07'2 4.9
2017-Oct-18 16:30N 43°34' E 010°05'2 4.1
2017-Oct-18 15:56N 43°32' E 010°06'2 4.9
2017-Oct-18 15:30N 43°30' E 010°06'14 4.5
2017-Oct-18 12:23N 43°24' E 010°24'3 5.1
2017-Oct-18 11:53N 43°22' E 010°25'2 5.1
2017-Oct-18 11:30N 43°21' E 010°22'2 5.0
2017-Oct-18 11:00N 43°21' E 010°19'229 4.8
2017-Oct-16 11:44N 40°43' E 014°02'2 4.5
2017-Oct-16 11:21N 40°44' E 014°04'2 4.5
2017-Oct-16 11:00N 40°45' E 014°05'2 4.5
2017-Oct-16 10:30N 40°46' E 014°08'3 4.7
2017-Oct-16 09:58N 40°47' E 014°11'  

Dump ship's entire track history